createdAt,value
2017-04-07T00:00:33.348Z,18.62
2017-04-07T00:01:34.113Z,12.52
2017-04-07T00:02:34.763Z,11.87
2017-04-07T00:03:35.072Z,18.32
2017-04-07T00:04:35.017Z,11.15
2017-04-07T00:05:35.695Z,12.72
2017-04-07T00:06:35.727Z,8.90
2017-04-07T00:07:35.725Z,13.23
2017-04-07T00:08:36.128Z,16.62
2017-04-07T00:09:36.137Z,13.50
2017-04-07T00:10:36.141Z,19.00
2017-04-07T00:11:36.127Z,19.78
2017-04-07T00:12:36.079Z,11.98
2017-04-07T00:13:37.080Z,19.92
2017-04-07T00:14:37.053Z,18.05
2017-04-07T00:15:37.050Z,9.22
2017-04-07T00:16:37.129Z,21.27
2017-04-07T00:17:37.548Z,14.18
2017-04-07T00:18:37.762Z,15.17
2017-04-07T00:19:37.763Z,20.08
2017-04-07T00:20:38.462Z,9.37
2017-04-07T00:21:38.494Z,17.93
2017-04-07T00:22:39.224Z,10.82
2017-04-07T00:23:40.307Z,13.25
2017-04-07T00:24:40.290Z,10.77
2017-04-07T00:25:40.258Z,14.05
2017-04-07T00:26:41.183Z,16.12
2017-04-07T00:27:41.148Z,16.83
2017-04-07T00:28:41.461Z,14.22
2017-04-07T00:29:41.450Z,11.08
2017-04-07T00:30:41.367Z,11.82
2017-04-07T00:31:41.273Z,9.15
2017-04-07T00:32:41.303Z,13.83
2017-04-07T00:33:41.592Z,15.20
2017-04-07T00:34:41.562Z,12.92
2017-04-07T00:35:41.543Z,10.10
2017-04-07T00:36:42.283Z,15.68
2017-04-07T00:37:42.226Z,11.27
2017-04-07T00:38:42.543Z,10.73
2017-04-07T00:39:42.508Z,10.72
2017-04-07T00:40:42.508Z,12.08
2017-04-07T00:41:42.490Z,10.53
2017-04-07T00:42:42.465Z,13.88
2017-04-07T00:43:42.792Z,10.42
2017-04-07T00:44:42.469Z,12.13
2017-04-07T00:45:42.448Z,12.42
2017-04-07T00:46:42.370Z,13.63
2017-04-07T00:47:42.324Z,10.98
2017-04-07T00:48:43.329Z,13.73
2017-04-07T00:49:43.285Z,11.88
2017-04-07T00:50:43.212Z,12.28
2017-04-07T00:51:43.239Z,11.88
2017-04-07T00:52:43.180Z,9.73
2017-04-07T00:53:44.187Z,11.70
2017-04-07T00:54:44.130Z,12.90
2017-04-07T00:55:44.126Z,11.40
2017-04-07T00:56:44.814Z,11.33
2017-04-07T00:57:44.580Z,10.60
2017-04-07T00:58:44.818Z,17.52
2017-04-07T00:59:44.777Z,9.93
2017-04-07T01:00:44.687Z,17.60
2017-04-07T01:01:44.706Z,12.73
2017-04-07T01:02:44.635Z,16.27
2017-04-07T01:03:44.947Z,11.85
2017-04-07T01:04:44.889Z,10.48
2017-04-07T01:05:45.572Z,10.05
2017-04-07T01:06:45.516Z,13.77
2017-04-07T01:07:46.222Z,13.18
2017-04-07T01:08:47.013Z,12.20
2017-04-07T01:09:47.018Z,12.67
2017-04-07T01:10:47.012Z,11.02
2017-04-07T01:11:46.783Z,15.62
2017-04-07T01:12:47.464Z,11.42
2017-04-07T01:13:47.885Z,13.10
2017-04-07T01:14:47.965Z,16.30
2017-04-07T01:15:47.927Z,14.35
2017-04-07T01:16:48.450Z,9.53
2017-04-07T01:17:48.969Z,9.43
2017-04-07T01:18:49.963Z,10.65
2017-04-07T01:19:49.916Z,17.40
2017-04-07T01:20:49.894Z,13.93
2017-04-07T01:21:49.839Z,18.93
2017-04-07T01:22:49.851Z,14.77
2017-04-07T01:23:49.822Z,15.33
2017-04-07T01:24:50.297Z,10.58
2017-04-07T01:25:50.303Z,11.07
2017-04-07T01:26:50.263Z,11.97
2017-04-07T01:27:50.214Z,16.67
2017-04-07T01:28:50.138Z,13.55
2017-04-07T01:29:50.445Z,15.87
2017-04-07T01:30:50.407Z,16.07
2017-04-07T01:31:50.320Z,13.37
2017-04-07T01:32:50.085Z,15.85
2017-04-07T01:33:50.790Z,17.45
2017-04-07T01:34:51.784Z,10.32
2017-04-07T01:35:51.769Z,11.08
2017-04-07T01:36:51.799Z,14.50
2017-04-07T01:37:51.750Z,18.03
2017-04-07T01:38:52.198Z,10.35
2017-04-07T01:39:56.552Z,19.10
2017-04-07T01:40:56.501Z,13.12
2017-04-07T01:41:56.412Z,13.88
2017-04-07T01:42:56.316Z,13.02
2017-04-07T01:43:56.272Z,16.33
2017-04-07T01:44:56.300Z,12.68
2017-04-07T01:45:57.024Z,15.18
2017-04-07T01:46:57.714Z,12.03
2017-04-07T01:47:57.617Z,16.00
2017-04-07T01:48:57.575Z,14.63
2017-04-07T01:49:57.923Z,12.55
2017-04-07T01:50:58.675Z,11.75
2017-04-07T01:51:58.677Z,10.67
2017-04-07T01:52:58.691Z,17.00
2017-04-07T01:53:59.353Z,15.08
2017-04-07T01:54:59.593Z,13.47
2017-04-07T01:55:59.338Z,13.18
2017-04-07T01:56:59.317Z,20.35
2017-04-07T01:57:59.275Z,15.83
2017-04-07T01:58:59.195Z,10.20
2017-04-07T01:59:59.509Z,12.28
2017-04-07T02:00:59.555Z,10.08
2017-04-07T02:02:00.280Z,14.25
2017-04-07T02:03:00.967Z,19.18
2017-04-07T02:04:01.023Z,16.73
2017-04-07T02:05:02.137Z,20.15
2017-04-07T02:06:02.899Z,12.58
2017-04-07T02:07:02.905Z,15.45
2017-04-07T02:08:02.880Z,11.42
2017-04-07T02:09:03.679Z,14.42
2017-04-07T02:10:03.968Z,16.35
2017-04-07T02:11:03.936Z,15.63
2017-04-07T02:12:04.657Z,15.58
2017-04-07T02:13:05.483Z,18.17
2017-04-07T02:14:06.184Z,17.65
2017-04-07T02:15:06.997Z,16.37
2017-04-07T02:16:06.684Z,10.57
2017-04-07T02:17:07.473Z,14.83
2017-04-07T02:18:07.386Z,17.55
2017-04-07T02:19:07.358Z,11.23
2017-04-07T02:20:07.737Z,15.08
2017-04-07T02:21:07.812Z,15.42
2017-04-07T02:22:07.839Z,11.03
2017-04-07T02:23:11.381Z,13.58
2017-04-07T02:24:11.605Z,18.35
2017-04-07T02:25:11.698Z,17.32
2017-04-07T02:26:11.757Z,14.22
2017-04-07T02:27:11.717Z,15.35
2017-04-07T02:28:12.478Z,11.62
2017-04-07T02:29:13.251Z,11.75
2017-04-07T02:30:14.376Z,17.07
2017-04-07T02:31:15.138Z,18.05
2017-04-07T02:32:14.913Z,17.60
2017-04-07T02:33:15.217Z,14.05
2017-04-07T02:34:15.928Z,15.27
2017-04-07T02:35:16.957Z,14.02
2017-04-07T02:36:16.923Z,15.83
2017-04-07T02:37:16.851Z,17.43
2017-04-07T02:38:16.829Z,20.55
2017-04-07T02:39:16.698Z,17.10
2017-04-07T02:40:17.753Z,24.23
2017-04-07T02:41:17.744Z,10.35
2017-04-07T02:42:17.758Z,14.53
2017-04-07T02:43:17.694Z,15.65
2017-04-07T02:44:17.656Z,11.48
2017-04-07T02:45:17.610Z,15.60
2017-04-07T02:46:18.314Z,16.05
2017-04-07T02:47:18.325Z,13.10
2017-04-07T02:48:18.288Z,16.08
2017-04-07T02:49:19.002Z,15.03
2017-04-07T02:50:19.673Z,19.65
2017-04-07T02:51:20.130Z,19.02
2017-04-07T02:52:20.192Z,13.90
2017-04-07T02:53:20.154Z,16.40
2017-04-07T02:54:20.916Z,13.90
2017-04-07T02:55:20.898Z,21.70
2017-04-07T02:56:21.948Z,11.97
2017-04-07T02:57:21.898Z,17.45
2017-04-07T02:58:21.877Z,16.00
2017-04-07T02:59:21.838Z,19.47
2017-04-07T03:00:22.556Z,15.60
2017-04-07T03:01:23.546Z,17.85
2017-04-07T03:02:23.492Z,19.65
2017-04-07T03:03:24.197Z,16.42
2017-04-07T03:04:24.018Z,14.33
2017-04-07T03:05:24.049Z,16.10
2017-04-07T03:06:24.495Z,21.15
2017-04-07T03:07:24.484Z,18.27
2017-04-07T03:08:24.517Z,18.50
2017-04-07T03:09:24.252Z,19.95
2017-04-07T03:10:24.975Z,15.92
2017-04-07T03:11:26.064Z,11.87
2017-04-07T03:12:26.008Z,18.72
2017-04-07T03:13:26.693Z,19.87
2017-04-07T03:14:26.655Z,17.63
2017-04-07T03:15:26.676Z,23.07
2017-04-07T03:16:26.965Z,15.67
2017-04-07T03:17:26.875Z,20.43
2017-04-07T03:18:26.837Z,15.55
2017-04-07T03:19:26.857Z,20.05
2017-04-07T03:20:26.832Z,12.58
2017-04-07T03:21:27.149Z,16.70
2017-04-07T03:22:27.117Z,15.78
2017-04-07T03:23:27.112Z,21.17
2017-04-07T03:24:27.059Z,17.62
2017-04-07T03:25:27.830Z,20.30
2017-04-07T03:26:28.662Z,13.85
2017-04-07T03:27:29.378Z,22.02
2017-04-07T03:28:29.438Z,13.97
2017-04-07T03:29:29.430Z,19.65
2017-04-07T03:30:29.435Z,12.67
2017-04-07T03:31:29.771Z,20.75
2017-04-07T03:32:29.742Z,12.50
2017-04-07T03:33:29.686Z,19.57
2017-04-07T03:34:29.773Z,16.28
2017-04-07T03:35:29.530Z,17.12
2017-04-07T03:36:30.527Z,25.87
2017-04-07T03:37:30.501Z,13.05
2017-04-07T03:38:30.610Z,15.85
2017-04-07T03:39:30.375Z,20.42
2017-04-07T03:40:30.893Z,21.78
2017-04-07T03:41:30.917Z,29.08
2017-04-07T03:42:30.939Z,19.12
2017-04-07T03:43:30.974Z,15.38
2017-04-07T03:44:30.982Z,14.08
2017-04-07T03:45:31.001Z,18.68
2017-04-07T03:46:32.213Z,13.08
2017-04-07T03:47:32.197Z,19.67
2017-04-07T03:48:32.191Z,14.43
2017-04-07T03:49:32.959Z,15.62
2017-04-07T03:50:32.997Z,14.38
2017-04-07T03:51:34.093Z,14.48
2017-04-07T03:52:34.094Z,17.48
2017-04-07T03:53:33.940Z,14.22
2017-04-07T03:54:34.657Z,15.63
2017-04-07T03:55:34.525Z,23.50
2017-04-07T03:56:34.677Z,15.60
2017-04-07T03:57:35.359Z,16.68
2017-04-07T03:58:35.329Z,16.53
2017-04-07T03:59:36.210Z,17.47
2017-04-07T04:00:36.152Z,15.57
2017-04-07T04:01:36.420Z,16.40
2017-04-07T04:02:36.369Z,19.98
2017-04-07T04:03:36.333Z,19.62
2017-04-07T04:04:36.261Z,16.38
2017-04-07T04:05:37.021Z,20.43
2017-04-07T04:06:37.298Z,21.28
2017-04-07T04:07:37.964Z,18.27
2017-04-07T04:08:37.908Z,13.78
2017-04-07T04:09:38.657Z,15.02
2017-04-07T04:10:38.681Z,17.25
2017-04-07T04:11:39.058Z,18.97
2017-04-07T04:12:39.840Z,12.83
2017-04-07T04:13:40.633Z,14.27
2017-04-07T04:14:40.589Z,15.40
2017-04-07T04:15:40.601Z,15.72
2017-04-07T04:16:41.778Z,15.33
2017-04-07T04:17:41.827Z,15.95
2017-04-07T04:18:41.809Z,15.32
2017-04-07T04:19:41.765Z,13.68
2017-04-07T04:20:42.470Z,17.03
2017-04-07T04:21:42.783Z,20.33
2017-04-07T04:22:42.729Z,21.60
2017-04-07T04:23:42.567Z,19.98
2017-04-07T04:24:42.536Z,12.80
2017-04-07T04:25:42.515Z,13.18
2017-04-07T04:26:43.625Z,14.82
2017-04-07T04:27:43.623Z,18.05
2017-04-07T04:28:43.647Z,15.67
2017-04-07T04:29:43.629Z,18.48
2017-04-07T04:30:43.560Z,15.28
2017-04-07T04:31:44.965Z,14.75
2017-04-07T04:32:45.049Z,11.03
2017-04-07T04:33:45.814Z,20.25
2017-04-07T04:34:45.780Z,11.50
2017-04-07T04:35:45.801Z,16.80
2017-04-07T04:36:46.500Z,18.60
2017-04-07T04:37:46.295Z,23.90
2017-04-07T04:38:46.990Z,24.15
2017-04-07T04:39:47.424Z,11.60
2017-04-07T04:40:47.535Z,16.75
2017-04-07T04:41:47.814Z,17.67
2017-04-07T04:42:47.546Z,21.13
2017-04-07T04:43:47.545Z,17.60
2017-04-07T04:44:48.308Z,16.48
2017-04-07T04:45:48.385Z,20.63
2017-04-07T04:46:49.422Z,14.05
2017-04-07T04:47:50.137Z,16.18
2017-04-07T04:48:50.661Z,20.48
2017-04-07T04:49:52.150Z,17.32
2017-04-07T04:50:52.106Z,14.80
2017-04-07T04:51:52.480Z,18.18
2017-04-07T04:52:52.490Z,16.58
2017-04-07T04:53:52.431Z,15.73
2017-04-07T04:54:52.364Z,17.58
2017-04-07T04:55:52.312Z,32.18
2017-04-07T04:56:52.539Z,18.63
2017-04-07T04:57:53.286Z,14.40
2017-04-07T04:58:53.256Z,17.70
2017-04-07T04:59:54.106Z,17.05
2017-04-07T05:00:55.950Z,23.55
2017-04-07T05:01:56.701Z,12.65
2017-04-07T05:02:57.456Z,16.68
2017-04-07T05:03:57.515Z,15.13
2017-04-07T05:04:57.495Z,14.17
2017-04-07T05:05:58.244Z,14.70
2017-04-07T05:06:58.315Z,13.93
2017-04-07T05:07:58.265Z,19.48
2017-04-07T05:08:58.216Z,9.17
2017-04-07T05:09:58.155Z,17.78
2017-04-07T05:10:58.215Z,19.95
2017-04-07T05:11:59.060Z,15.05
2017-04-07T05:12:59.057Z,23.45
2017-04-07T05:13:59.351Z,19.80
2017-04-07T05:14:59.271Z,14.33
2017-04-07T05:15:59.267Z,18.23
2017-04-07T05:17:00.319Z,16.18
2017-04-07T05:18:00.316Z,12.55
2017-04-07T05:19:00.324Z,13.62
2017-04-07T05:20:00.286Z,17.92
2017-04-07T05:21:00.259Z,17.10
2017-04-07T05:22:00.299Z,22.25
2017-04-07T05:23:00.307Z,18.73
2017-04-07T05:24:00.350Z,15.50
2017-04-07T05:25:00.360Z,17.57
2017-04-07T05:26:00.578Z,24.63
2017-04-07T05:27:01.430Z,11.52
2017-04-07T05:28:02.174Z,13.35
2017-04-07T05:29:02.149Z,18.32
2017-04-07T05:30:02.948Z,15.20
2017-04-07T05:31:03.162Z,14.58
2017-04-07T05:32:03.708Z,13.33
2017-04-07T05:33:04.312Z,13.53
2017-04-07T05:34:04.272Z,15.95
2017-04-07T05:35:04.318Z,22.90
2017-04-07T05:36:04.370Z,18.93
2017-04-07T05:37:07.371Z,12.20
2017-04-07T05:38:13.086Z,20.82
2017-04-07T05:39:21.787Z,19.52
2017-04-07T05:40:29.868Z,12.72
2017-04-07T05:41:39.372Z,22.22
2017-04-07T05:42:50.267Z,16.92
2017-04-07T05:43:50.902Z,15.78
2017-04-07T05:44:50.903Z,27.52
2017-04-07T05:45:50.925Z,17.32
2017-04-07T05:46:50.934Z,24.03
2017-04-07T05:47:50.943Z,17.32
2017-04-07T05:48:50.818Z,18.65
2017-04-07T05:49:50.617Z,16.15
2017-04-07T05:50:50.551Z,18.45
2017-04-07T05:51:50.563Z,19.22
2017-04-07T05:52:50.890Z,16.28
2017-04-07T05:53:50.811Z,18.58
2017-04-07T05:54:50.784Z,16.93
2017-04-07T05:55:50.808Z,24.35
2017-04-07T05:56:50.498Z,27.65
2017-04-07T05:57:50.257Z,19.85
2017-04-07T05:58:50.538Z,21.07
2017-04-07T05:59:50.527Z,15.60
2017-04-07T06:00:50.466Z,25.58
2017-04-07T06:01:51.226Z,22.48
2017-04-07T06:02:51.225Z,20.48
2017-04-07T06:03:51.494Z,16.98
2017-04-07T06:04:52.182Z,21.03
2017-04-07T06:05:52.116Z,18.57
2017-04-07T06:06:52.116Z,17.72
2017-04-07T06:07:52.171Z,17.22
2017-04-07T06:08:52.414Z,14.23
2017-04-07T06:09:52.320Z,30.33
2017-04-07T06:10:52.278Z,17.97
2017-04-07T06:11:52.941Z,22.52
2017-04-07T06:12:52.993Z,23.25
2017-04-07T06:13:53.403Z,20.98
2017-04-07T06:14:53.336Z,23.32
2017-04-07T06:15:53.378Z,26.75
2017-04-07T06:16:53.412Z,20.22
2017-04-07T06:17:53.374Z,23.42
2017-04-07T06:18:53.620Z,18.07
2017-04-07T06:19:53.579Z,24.63
2017-04-07T06:20:53.364Z,23.20
2017-04-07T06:21:54.053Z,21.30
2017-04-07T06:22:54.085Z,21.30
2017-04-07T06:23:55.218Z,27.53
2017-04-07T06:24:55.856Z,20.12
2017-04-07T06:25:55.872Z,29.63
2017-04-07T06:26:55.838Z,29.43
2017-04-07T06:27:55.774Z,28.92
2017-04-07T06:28:56.082Z,24.50
2017-04-07T06:29:56.048Z,28.95
2017-04-07T06:30:56.054Z,20.18
2017-04-07T06:31:55.991Z,21.02
2017-04-07T06:32:56.442Z,19.90
2017-04-07T06:33:56.774Z,26.43
2017-04-07T06:34:56.756Z,15.02
2017-04-07T06:35:56.681Z,18.37
2017-04-07T06:36:56.732Z,20.90
2017-04-07T06:37:56.910Z,15.97
2017-04-07T06:38:57.228Z,23.92
2017-04-07T06:39:56.927Z,17.55
2017-04-07T06:40:57.701Z,17.37
2017-04-07T06:41:57.726Z,23.45
2017-04-07T06:42:58.490Z,25.37
2017-04-07T06:43:58.799Z,25.90
2017-04-07T06:44:58.745Z,22.08
2017-04-07T06:45:58.750Z,21.22
2017-04-07T06:46:58.801Z,25.60
2017-04-07T06:47:58.799Z,22.03
2017-04-07T06:48:59.070Z,27.12
2017-04-07T06:49:59.047Z,22.30
2017-04-07T06:50:59.026Z,25.68
2017-04-07T06:51:58.934Z,15.52
2017-04-07T06:52:58.879Z,22.53
2017-04-07T06:53:59.961Z,25.62
2017-04-07T06:54:59.944Z,19.92
2017-04-07T06:55:59.895Z,20.03
2017-04-07T06:56:59.870Z,17.97
2017-04-07T06:57:59.826Z,17.82
2017-04-07T06:59:00.835Z,21.38
2017-04-07T07:00:00.817Z,16.97
2017-04-07T07:01:00.777Z,20.73
2017-04-07T07:02:01.476Z,23.78
2017-04-07T07:03:01.495Z,21.78
2017-04-07T07:04:02.709Z,24.58
2017-04-07T07:05:03.455Z,26.93
2017-04-07T07:06:04.157Z,21.03
2017-04-07T07:07:04.197Z,22.13
2017-04-07T07:08:04.873Z,25.10
2017-04-07T07:09:05.768Z,24.50
2017-04-07T07:10:05.745Z,19.48
2017-04-07T07:11:06.545Z,26.55
2017-04-07T07:12:06.586Z,21.02
2017-04-07T07:13:06.375Z,20.72
2017-04-07T07:14:07.469Z,22.27
2017-04-07T07:15:07.450Z,22.45
2017-04-07T07:16:07.415Z,21.77
2017-04-07T07:17:08.175Z,18.47
2017-04-07T07:18:08.130Z,29.62
2017-04-07T07:19:09.140Z,22.33
2017-04-07T07:20:09.132Z,23.63
2017-04-07T07:21:09.172Z,24.83
2017-04-07T07:22:10.117Z,19.92
2017-04-07T07:23:10.634Z,22.17
2017-04-07T07:24:11.645Z,17.68
2017-04-07T07:25:11.611Z,16.60
2017-04-07T07:26:11.583Z,30.97
2017-04-07T07:27:11.589Z,25.75
2017-04-07T07:28:12.305Z,37.02
2017-04-07T07:29:19.948Z,22.33
2017-04-07T07:30:21.819Z,22.70
2017-04-07T07:31:22.358Z,28.98
2017-04-07T07:32:23.077Z,23.23
2017-04-07T07:33:23.741Z,23.40
2017-04-07T07:34:24.092Z,31.28
2017-04-07T07:35:24.123Z,18.42
2017-04-07T07:36:24.643Z,29.53
2017-04-07T07:37:24.633Z,28.38
2017-04-07T07:38:25.301Z,23.75
2017-04-07T07:39:25.562Z,39.43
2017-04-07T07:40:26.373Z,24.43
2017-04-07T07:41:26.385Z,26.27
2017-04-07T07:42:29.459Z,27.40
2017-04-07T07:43:29.525Z,33.62
2017-04-07T07:44:29.721Z,26.92
2017-04-07T07:45:29.698Z,27.58
2017-04-07T07:46:30.419Z,26.58
2017-04-07T07:47:30.291Z,34.55
2017-04-07T07:48:30.303Z,24.17
2017-04-07T07:49:30.595Z,31.07
2017-04-07T07:50:30.661Z,19.52
2017-04-07T07:51:31.440Z,26.28
2017-04-07T07:52:31.386Z,23.72
2017-04-07T07:53:31.349Z,25.30
2017-04-07T07:54:31.671Z,19.42
2017-04-07T07:55:31.664Z,33.47
2017-04-07T07:56:31.613Z,25.68
2017-04-07T07:57:32.423Z,20.72
2017-04-07T07:58:32.352Z,23.93
2017-04-07T07:59:33.384Z,28.70
2017-04-07T08:00:34.064Z,24.07
2017-04-07T08:01:34.416Z,31.90
2017-04-07T08:02:35.116Z,21.02
2017-04-07T08:03:35.122Z,28.62
2017-04-07T08:04:35.417Z,20.88
2017-04-07T08:05:35.354Z,34.13
2017-04-07T08:06:36.121Z,27.48
2017-04-07T08:07:36.896Z,25.57
2017-04-07T08:08:37.638Z,19.92
2017-04-07T08:09:38.773Z,25.90
2017-04-07T08:10:38.566Z,28.32
2017-04-07T08:11:39.354Z,26.12
2017-04-07T08:12:39.268Z,28.20
2017-04-07T08:13:39.246Z,23.90
2017-04-07T08:14:39.532Z,26.98
2017-04-07T08:15:39.549Z,26.02
2017-04-07T08:16:39.526Z,26.70
2017-04-07T08:17:40.206Z,26.43
2017-04-07T08:18:40.225Z,26.13
2017-04-07T08:19:40.616Z,27.78
2017-04-07T08:20:40.681Z,30.27
2017-04-07T08:21:40.684Z,23.22
2017-04-07T08:22:41.381Z,23.53
2017-04-07T08:23:41.349Z,25.88
2017-04-07T08:24:41.700Z,25.65
2017-04-07T08:25:41.724Z,27.70
2017-04-07T08:26:42.406Z,26.08
2017-04-07T08:27:42.497Z,36.85
2017-04-07T08:28:42.505Z,35.43
2017-04-07T08:29:42.954Z,30.58
2017-04-07T08:30:42.935Z,31.10
2017-04-07T08:31:42.949Z,28.67
2017-04-07T08:32:42.973Z,32.50
2017-04-07T08:33:42.977Z,22.73
2017-04-07T08:34:43.406Z,33.23
2017-04-07T08:35:43.481Z,31.90
2017-04-07T08:36:43.460Z,35.55
2017-04-07T08:37:43.423Z,35.98
2017-04-07T08:38:43.437Z,29.80
2017-04-07T08:39:44.551Z,30.40
2017-04-07T08:40:44.386Z,28.80
2017-04-07T08:41:45.128Z,22.70
2017-04-07T08:42:45.190Z,32.82
2017-04-07T08:43:46.057Z,39.45
2017-04-07T08:44:46.456Z,37.53
2017-04-07T08:45:47.275Z,40.43
2017-04-07T08:46:47.445Z,39.07
2017-04-07T08:47:47.428Z,26.83
2017-04-07T08:48:47.443Z,27.43
2017-04-07T08:49:47.714Z,28.35
2017-04-07T08:50:48.448Z,29.60
2017-04-07T08:51:48.469Z,34.32
2017-04-07T08:52:48.423Z,34.73
2017-04-07T08:53:48.414Z,34.47
2017-04-07T08:54:48.853Z,27.48
2017-04-07T08:55:49.552Z,35.15
2017-04-07T08:56:49.754Z,28.72
2017-04-07T08:57:49.637Z,28.73
2017-04-07T08:58:49.650Z,35.62
2017-04-07T08:59:49.941Z,26.87
2017-04-07T09:00:50.004Z,34.93
2017-04-07T09:03:15.047Z,33.38
2017-04-07T09:04:14.980Z,35.03
2017-04-07T09:05:15.349Z,29.77
2017-04-07T09:06:16.182Z,30.48
2017-04-07T09:07:16.933Z,29.75
2017-04-07T09:08:16.899Z,40.92
2017-04-07T09:09:17.614Z,27.57
2017-04-07T09:10:18.608Z,22.63
2017-04-07T09:11:18.610Z,23.83
2017-04-07T09:12:18.644Z,29.22
2017-04-07T09:13:18.619Z,34.07
2017-04-07T09:14:18.643Z,25.50
2017-04-07T09:15:18.964Z,32.60
2017-04-07T09:16:18.929Z,35.72
2017-04-07T09:17:18.929Z,39.18
2017-04-07T09:18:19.162Z,36.45
2017-04-07T09:19:19.193Z,34.98
2017-04-07T09:20:19.513Z,30.80
2017-04-07T09:21:20.318Z,29.55
2017-04-07T09:22:20.367Z,35.18
2017-04-07T09:23:21.060Z,35.82
2017-04-07T09:24:26.555Z,37.67
2017-04-07T09:25:26.873Z,33.57
2017-04-07T09:26:26.847Z,38.40
2017-04-07T09:27:27.565Z,35.23
2017-04-07T09:28:27.533Z,29.38
2017-04-07T09:29:27.621Z,24.47
2017-04-07T09:30:30.381Z,34.73
2017-04-07T09:31:30.621Z,34.95
2017-04-07T09:32:30.631Z,35.83
2017-04-07T09:33:30.553Z,33.55
2017-04-07T09:34:31.354Z,23.27
2017-04-07T09:35:31.588Z,28.50
2017-04-07T09:36:31.530Z,30.18
2017-04-07T09:37:31.519Z,35.27
2017-04-07T09:38:32.599Z,37.32
2017-04-07T09:39:32.574Z,30.65
2017-04-07T09:40:33.133Z,29.17
2017-04-07T09:41:33.148Z,30.62
2017-04-07T09:42:33.302Z,42.38
2017-04-07T09:43:33.271Z,30.93
2017-04-07T09:44:33.255Z,30.62
2017-04-07T09:45:33.548Z,32.52
2017-04-07T09:46:33.528Z,36.88
2017-04-07T09:47:33.582Z,34.93
2017-04-07T09:48:33.322Z,28.52
2017-04-07T09:49:34.122Z,32.72
2017-04-07T09:50:34.533Z,34.23
2017-04-07T09:51:34.533Z,35.58
2017-04-07T09:52:34.485Z,39.92
2017-04-07T09:53:34.647Z,35.72
2017-04-07T09:54:34.609Z,34.23
2017-04-07T09:55:35.009Z,35.13
2017-04-07T09:56:34.957Z,29.45
2017-04-07T09:57:34.968Z,43.15
2017-04-07T09:58:34.938Z,30.60
2017-04-07T09:59:34.957Z,35.33
2017-04-07T10:00:35.312Z,34.52
2017-04-07T10:01:35.298Z,33.88
2017-04-07T10:02:35.265Z,29.83
2017-04-07T10:03:35.260Z,32.27
2017-04-07T10:04:35.248Z,36.45
2017-04-07T10:05:36.399Z,34.02
2017-04-07T10:06:36.368Z,40.75
2017-04-07T10:07:36.382Z,31.73
2017-04-07T10:08:36.414Z,27.40
2017-04-07T10:09:37.137Z,33.78
2017-04-07T10:10:38.073Z,36.40
2017-04-07T10:11:38.094Z,27.73
2017-04-07T10:12:41.871Z,45.25
2017-04-07T10:13:41.922Z,38.87
2017-04-07T10:14:41.948Z,32.17
2017-04-07T10:15:42.293Z,29.80
2017-04-07T10:16:43.035Z,47.93
2017-04-07T10:17:42.726Z,43.20
2017-04-07T10:18:42.768Z,31.03
2017-04-07T10:19:42.782Z,32.33
2017-04-07T10:20:43.119Z,39.28
2017-04-07T10:21:43.086Z,31.85
2017-04-07T10:22:43.053Z,34.32
2017-04-07T10:23:43.804Z,35.77
2017-04-07T10:24:43.790Z,29.33
2017-04-07T10:25:43.340Z,35.43
2017-04-07T10:26:43.438Z,35.18
2017-04-07T10:27:43.434Z,32.15
2017-04-07T10:28:43.545Z,25.47
2017-04-07T10:29:43.553Z,37.40
2017-04-07T10:30:44.127Z,26.68
2017-04-07T10:31:44.816Z,29.90
2017-04-07T10:32:44.801Z,37.55
2017-04-07T10:33:44.788Z,33.05
2017-04-07T10:34:44.759Z,35.00
2017-04-07T10:35:45.791Z,31.05
2017-04-07T10:36:46.571Z,33.72
2017-04-07T10:37:46.523Z,38.67
2017-04-07T10:38:47.245Z,29.10
2017-04-07T10:39:48.022Z,28.22
2017-04-07T10:40:48.349Z,28.65
2017-04-07T10:41:48.369Z,33.12
2017-04-07T10:42:48.403Z,32.53
2017-04-07T10:43:48.404Z,36.33
2017-04-07T10:44:49.105Z,28.82
2017-04-07T10:45:49.413Z,35.10
2017-04-07T10:46:50.228Z,29.70
2017-04-07T10:47:50.170Z,28.27
2017-04-07T10:48:50.156Z,30.30
2017-04-07T10:49:50.184Z,38.58
2017-04-07T10:50:50.288Z,31.87
2017-04-07T10:51:50.343Z,30.50
2017-04-07T10:52:50.420Z,31.88
2017-04-07T10:53:51.351Z,36.25
2017-04-07T10:54:51.342Z,37.58
2017-04-07T10:55:51.730Z,32.35
2017-04-07T10:56:51.718Z,31.82
2017-04-07T10:57:51.706Z,28.48
2017-04-07T10:58:51.747Z,28.67
2017-04-07T10:59:51.783Z,34.50
2017-04-07T11:00:52.093Z,24.63
2017-04-07T11:01:52.059Z,31.72
2017-04-07T11:02:52.061Z,34.15
2017-04-07T11:03:52.042Z,32.98
2017-04-07T11:04:52.043Z,35.58
2017-04-07T11:05:52.407Z,32.22
2017-04-07T11:06:53.117Z,28.03
2017-04-07T11:07:53.091Z,26.82
2017-04-07T11:08:53.113Z,33.28
2017-04-07T11:09:53.092Z,36.67
2017-04-07T11:10:53.860Z,31.85
2017-04-07T11:11:53.794Z,33.18
2017-04-07T11:12:54.571Z,31.97
2017-04-07T11:13:54.568Z,36.42
2017-04-07T11:14:54.564Z,40.93
2017-04-07T11:15:54.911Z,39.07
2017-04-07T11:16:54.948Z,28.40
2017-04-07T11:17:55.692Z,33.03
2017-04-07T11:18:55.757Z,38.57
2017-04-07T11:19:55.688Z,38.93
2017-04-07T11:20:55.894Z,35.63
2017-04-07T11:21:56.607Z,30.42
2017-04-07T11:22:57.372Z,34.60
2017-04-07T11:23:57.277Z,34.45
2017-04-07T11:24:57.189Z,43.77
2017-04-07T11:25:57.644Z,29.08
2017-04-07T11:26:57.592Z,33.08
2017-04-07T11:27:57.556Z,36.67
2017-04-07T11:28:58.312Z,38.73
2017-04-07T11:29:58.264Z,30.50
2017-04-07T11:30:59.658Z,39.58
2017-04-07T11:32:00.639Z,39.03
2017-04-07T11:33:00.577Z,31.73
2017-04-07T11:34:01.306Z,37.22
2017-04-07T11:35:01.256Z,37.30
2017-04-07T11:36:01.517Z,32.77
2017-04-07T11:37:02.239Z,31.35
2017-04-07T11:38:02.923Z,41.58
2017-04-07T11:39:02.956Z,35.42
2017-04-07T11:40:03.755Z,41.27
2017-04-07T11:41:04.208Z,37.02
2017-04-07T11:42:04.949Z,36.93
2017-04-07T11:43:04.969Z,43.27
2017-04-07T11:44:04.957Z,32.70
2017-04-07T11:45:04.969Z,29.28
2017-04-07T11:46:05.059Z,41.63
2017-04-07T11:47:05.057Z,30.50
2017-04-07T11:48:05.829Z,39.72
2017-04-07T11:49:06.507Z,38.98
2017-04-07T11:50:07.222Z,32.72
2017-04-07T11:51:08.258Z,35.17
2017-04-07T11:52:08.998Z,39.93
2017-04-07T11:53:09.027Z,29.33
2017-04-07T11:54:08.999Z,33.30
2017-04-07T11:55:09.729Z,41.23
2017-04-07T11:56:10.043Z,30.02
2017-04-07T11:57:10.136Z,37.97
2017-04-07T11:58:09.842Z,29.95
2017-04-07T11:59:10.360Z,39.70
2017-04-07T12:00:11.069Z,34.75
2017-04-07T12:01:12.120Z,36.98
2017-04-07T12:02:12.135Z,34.72
2017-04-07T12:03:12.095Z,31.28
2017-04-07T12:04:12.094Z,37.85
2017-04-07T12:05:12.168Z,37.80
2017-04-07T12:06:12.518Z,34.25
2017-04-07T12:07:13.266Z,34.30
2017-04-07T12:08:14.021Z,27.75
2017-04-07T12:09:15.046Z,31.58
2017-04-07T12:10:15.077Z,32.23
2017-04-07T12:11:15.225Z,33.80
2017-04-07T12:12:15.194Z,40.18
2017-04-07T12:13:15.601Z,34.30
2017-04-07T12:14:15.606Z,39.45
2017-04-07T12:15:15.583Z,27.62
2017-04-07T12:16:15.956Z,33.72
2017-04-07T12:17:15.957Z,33.68
2017-04-07T12:18:16.618Z,31.97
2017-04-07T12:19:16.602Z,33.90
2017-04-07T12:20:16.563Z,35.80
2017-04-07T12:21:16.922Z,27.50
2017-04-07T12:22:16.951Z,29.42
2017-04-07T12:23:17.775Z,31.30
2017-04-07T12:24:18.562Z,34.83
2017-04-07T12:25:18.300Z,30.10
2017-04-07T12:26:18.728Z,33.58
2017-04-07T12:27:18.677Z,29.13
2017-04-07T12:28:18.682Z,34.43
2017-04-07T12:29:18.611Z,32.50
2017-04-07T12:30:18.641Z,27.53
2017-04-07T12:31:19.735Z,30.07
2017-04-07T12:32:20.491Z,33.23
2017-04-07T12:33:21.194Z,23.65
2017-04-07T12:34:21.202Z,31.10
2017-04-07T12:35:20.970Z,25.42
2017-04-07T12:36:21.515Z,30.02
2017-04-07T12:37:21.348Z,26.70
2017-04-07T12:38:21.311Z,43.85
2017-04-07T12:39:21.301Z,25.47
2017-04-07T12:40:21.250Z,25.48
2017-04-07T12:41:22.355Z,27.85
2017-04-07T12:42:22.387Z,25.32
2017-04-07T12:43:23.089Z,22.90
2017-04-07T12:44:23.182Z,21.83
2017-04-07T12:45:23.138Z,21.47
2017-04-07T12:46:23.517Z,25.97
2017-04-07T12:47:23.448Z,23.77
2017-04-07T12:48:24.152Z,28.12
2017-04-07T12:49:24.119Z,23.78
2017-04-07T12:50:24.162Z,24.53
2017-04-07T12:51:24.464Z,29.77
2017-04-07T12:52:24.485Z,28.12
2017-04-07T12:53:24.466Z,32.38
2017-04-07T12:54:24.472Z,24.30
2017-04-07T12:55:24.446Z,29.72
2017-04-07T12:56:24.786Z,29.02
2017-04-07T12:57:24.807Z,22.92
2017-04-07T12:58:24.826Z,21.85